Main page
METAR-TAF:

METAR-TAF

Airports :

Oil platform

D15-fa-1, Netherlands

latitude: 54-19-32N, longitude: 2-56-09E, elevation: 36 m

Current weather observation

The report was made 28 minutes ago, at 05:25 UTC
Wind 10 kt from the South/Southeast
Temperature 19°C
Humidity 88%
Pressure 1019 hPa
Visibility 10 km or more

METAR: EHDV 250525Z AUTO 16010KT 9999 NCD 19/17 Q1019 W///H///

Time: 07:53 (05:53 UTC)


TAF: missing

Weather observations and forecasts of more than 4000 airports (METAR and TAF reports).

The available stations are represented by yellow and red dots on the map.

Hover mouse over dot to see the name of the station.

Then click to see weather observations and forecasts.

To change the map : click on the green buttons with a black cross to zoom in, on the green button with a dash to zoom out, or on the green arrows for adjacent maps.


METAR-TAF: